Bud Sonier — WDE9248 — position and weather

sailwx.info

Track history (hours):
 
Tides and Currents Weather Stations Pressure Air Temp Water Temp Dewpoint Dewpoint Depression Visibility Wind Speed Wind Dir Waves Ship Positions

Bud Sonier

Owner: LeBeouf Bros. Towing, LLC, Houma, LA. More information available from US FCC via Universal Licensing System and Coast Guard Vessel Documentation Center.

Last reported at 2017-Dec-27 19:22 UTC. Time now 2018-Jan-20 13:11 UTC.
Position N 29°35' W 090°23'.
Warning: this ship's position is 23 days out of date.

Length 22 m; draft 3 m.

Type: Towing. MMSI: 367415180.

Date/timePositionNaut miles runAvg speedWind from/ knotsBaromVisibWave heightAir tempDewpointWater temp
2017-Dec-27 19:22N 29°35' W 090°23'2 3.7
2017-Dec-27 18:53N 29°33' W 090°24'2 5.4
2017-Dec-27 18:30N 29°33' W 090°26'3 5.6
2017-Dec-27 18:00N 29°34' W 090°29'3 5.6
2017-Dec-27 17:30N 29°34' W 090°33'3 5.3
2017-Dec-27 17:00N 29°35' W 090°35'0 0.8
2017-Dec-27 16:30N 29°35' W 090°36'0 0.6
2017-Dec-27 16:00N 29°35' W 090°36'0 0.4
2017-Dec-27 15:30N 29°34' W 090°36'0 0.2
2017-Dec-27 15:00N 29°34' W 090°36'0 0.0
2017-Dec-27 14:30N 29°34' W 090°36'0 0.0
2017-Dec-27 14:00N 29°34' W 090°36'0 0.0
2017-Dec-27 13:30N 29°34' W 090°36'0 0.0
2017-Dec-27 13:00N 29°34' W 090°36'0 0.0
2017-Dec-27 12:30N 29°34' W 090°36'0 0.0
2017-Dec-27 12:00N 29°34' W 090°36'0 0.0
2017-Dec-27 11:30N 29°34' W 090°36'1 1.3
2017-Dec-27 11:00N 29°35' W 090°36'0 0.3
2017-Dec-27 10:30N 29°35' W 090°36'0 0.2
2017-Dec-27 10:00N 29°35' W 090°36'1 2.4
2017-Dec-27 09:30N 29°35' W 090°37'2 4.9
2017-Dec-27 09:00N 29°36' W 090°40'2 4.7
2017-Dec-27 08:30N 29°37' W 090°42'2 3.9
2017-Dec-27 08:00N 29°35' W 090°43'2 3.2
2017-Dec-27 07:30N 29°34' W 090°44'2 3.5
2017-Dec-27 07:00N 29°33' W 090°46'0 0.0
2017-Dec-27 06:30N 29°33' W 090°46'0 0.0
2017-Dec-27 06:00N 29°33' W 090°46'1 1.4
2017-Dec-27 05:30N 29°32' W 090°46'2 3.2
2017-Dec-27 05:00N 29°32' W 090°48'2 3.6
2017-Dec-27 04:30N 29°32' W 090°50'2 3.3
2017-Dec-27 03:59N 29°32' W 090°52'2 3.5
2017-Dec-27 03:24N 29°33' W 090°54'2 3.6
2017-Dec-27 02:58N 29°34' W 090°56'55 3.8
2017-Dec-26 12:15N 29°51' W 091°57'1 4.4
2017-Dec-26 11:59N 29°50' W 091°58'2 4.3
2017-Dec-26 11:30N 29°50' W 092°00'2 4.6
2017-Dec-26 11:00N 29°49' W 092°03'2 4.7
2017-Dec-26 10:30N 29°48' W 092°05'2 4.7
2017-Dec-26 10:00N 29°47' W 092°08'2 4.4
2017-Dec-26 09:30N 29°47' W 092°10'2 4.1
2017-Dec-26 09:00N 29°47' W 092°12'0 0.2
2017-Dec-26 08:30N 29°47' W 092°12'1 2.5
2017-Dec-26 08:00N 29°48' W 092°14'1 2.0
2017-Dec-26 07:30N 29°48' W 092°15'0 0.0
2017-Dec-26 07:00N 29°48' W 092°15'0 0.6
2017-Dec-26 06:30N 29°48' W 092°15'2 4.2
2017-Dec-26 06:00N 29°49' W 092°17'2 4.1
2017-Dec-26 05:30N 29°50' W 092°19'2 4.7
2017-Dec-26 05:00N 29°51' W 092°22'34 4.2
2017-Dec-25 21:03N 29°56' W 093°00'1 5.0
2017-Dec-25 20:49N 29°56' W 093°02'2 5.0
2017-Dec-25 20:30N 29°56' W 093°03'2 4.7
2017-Dec-25 20:00N 29°56' W 093°06'3 5.0
2017-Dec-25 19:30N 29°56' W 093°09'2 5.0
2017-Dec-25 19:00N 29°58' W 093°11'3 5.1
2017-Dec-25 18:30N 29°60' W 093°13'2 4.5
2017-Dec-25 18:00N 30°02' W 093°14'2 4.0
2017-Dec-25 17:30N 30°03' W 093°16'2 4.3
2017-Dec-25 17:00N 30°05' W 093°17'1 2.0
2017-Dec-25 16:30N 30°06' W 093°18'0 1.0
2017-Dec-25 16:00N 30°06' W 093°18'1 2.1
2017-Dec-25 15:30N 30°06' W 093°19'2 4.3
2017-Dec-25 15:00N 30°04' W 093°21'2 3.4
2017-Dec-25 14:30N 30°04' W 093°23'3 5.2
2017-Dec-25 14:00N 30°04' W 093°26'3 5.3
2017-Dec-25 13:30N 30°04' W 093°29'3 5.4
2017-Dec-25 13:00N 30°04' W 093°32'2 4.5
2017-Dec-25 12:28N 30°04' W 093°35'3 5.6
2017-Dec-25 11:59N 30°04' W 093°38'  
2017-Dec-23 03:56N 29°30' W 094°52'4 8.4
2017-Dec-23 03:30N 29°33' W 094°55'4 8.7
2017-Dec-23 03:00N 29°37' W 094°57'3 6.2
2017-Dec-23 02:30N 29°36' W 095°01'0 0.0
2017-Dec-23 02:00N 29°36' W 095°01'0 0.0
2017-Dec-23 01:30N 29°36' W 095°01'0 0.0
2017-Dec-23 01:00N 29°36' W 095°01'0 0.0
2017-Dec-23 00:30N 29°36' W 095°01'0 0.0
2017-Dec-23 00:00N 29°36' W 095°01'0 0.0
2017-Dec-22 23:30N 29°36' W 095°01'0 0.0
2017-Dec-22 23:00N 29°36' W 095°01'0 0.0
2017-Dec-22 22:30N 29°36' W 095°01'0 0.0
2017-Dec-22 22:00N 29°36' W 095°01'0 0.0
2017-Dec-22 21:30N 29°36' W 095°01'0 0.0
2017-Dec-22 21:00N 29°36' W 095°01'0 0.0
2017-Dec-22 20:30N 29°36' W 095°01'0 0.0
2017-Dec-22 20:00N 29°36' W 095°01'0 0.0
2017-Dec-22 19:30N 29°36' W 095°01'0 0.0
2017-Dec-22 19:00N 29°36' W 095°01'0 0.0
2017-Dec-22 18:30N 29°36' W 095°01'0 0.0
2017-Dec-22 18:00N 29°36' W 095°01'0 0.0
2017-Dec-22 17:30N 29°36' W 095°01'0 0.0
2017-Dec-22 17:00N 29°36' W 095°01'0 0.0
2017-Dec-22 16:30N 29°36' W 095°01'0 0.0
2017-Dec-22 16:00N 29°36' W 095°01'0 0.0
2017-Dec-22 15:30N 29°36' W 095°01'0 0.0
2017-Dec-22 15:00N 29°36' W 095°01'0 0.0
2017-Dec-22 14:30N 29°36' W 095°01'0 0.0
2017-Dec-22 14:00N 29°36' W 095°01'0 0.0
2017-Dec-22 13:30N 29°36' W 095°01'0 0.0
2017-Dec-22 12:59N 29°36' W 095°01'0 0.0
2017-Dec-22 12:30N 29°36' W 095°01'0 0.0
2017-Dec-22 12:00N 29°36' W 095°01'0 0.0
2017-Dec-22 11:30N 29°36' W 095°01'0 0.0
2017-Dec-22 11:00N 29°36' W 095°01'0 0.0
2017-Dec-22 10:30N 29°36' W 095°01'0 0.0
2017-Dec-22 10:00N 29°36' W 095°01'0 0.0
2017-Dec-22 09:30N 29°36' W 095°01'0 0.0
2017-Dec-22 09:00N 29°36' W 095°01'0 0.0
2017-Dec-22 08:30N 29°36' W 095°01'0 0.0
2017-Dec-22 08:00N 29°36' W 095°01'0 0.0
2017-Dec-22 07:30N 29°36' W 095°01'0 0.0
2017-Dec-22 07:00N 29°36' W 095°01'0 0.0
2017-Dec-22 06:30N 29°36' W 095°01'0 0.1
2017-Dec-22 06:00N 29°37' W 095°01'2 4.2
2017-Dec-22 05:30N 29°37' W 094°59'4 7.8
2017-Dec-22 05:00N 29°34' W 094°55'21 1.0
2017-Dec-21 06:35N 29°13' W 095°02'1 7.9
2017-Dec-21 06:25N 29°15' W 095°01'13 6.9
2017-Dec-21 04:31N 29°22' W 094°48'0 8.5
2017-Dec-21 04:30N 29°22' W 094°48'24 3.2
2017-Dec-20 20:57N 29°42' W 095°03'0 0.0
2017-Dec-20 20:26N 29°42' W 095°03'0 0.0
2017-Dec-20 19:51N 29°42' W 095°03'0 0.0
2017-Dec-20 19:30N 29°42' W 095°03'3 5.8
2017-Dec-20 19:00N 29°42' W 094°60'4 8.4
2017-Dec-20 18:30N 29°38' W 094°58'5 9.3
2017-Dec-20 18:00N 29°34' W 094°55'17 6.9
2017-Dec-20 15:36N 29°17' W 094°54'110.2
2017-Dec-20 15:29N 29°17' W 094°55'13 6.9
2017-Dec-20 13:36N 29°11' W 095°09'5 6.5
2017-Dec-20 12:51N 29°14' W 095°13'24 0.6
2017-Dec-18 19:55N 29°30' W 094°52'4 9.1
2017-Dec-18 19:30N 29°33' W 094°55'5 9.1
2017-Dec-18 19:00N 29°37' W 094°57'4 8.8
2017-Dec-18 18:30N 29°41' W 094°59'3 7.0
2017-Dec-18 18:00N 29°42' W 095°03'0 0.1
2017-Dec-18 17:30N 29°42' W 095°03'0 0.0
2017-Dec-18 17:00N 29°42' W 095°03'0 0.0
2017-Dec-18 16:30N 29°42' W 095°03'0 0.0
2017-Dec-18 16:00N 29°42' W 095°03'0 0.0
2017-Dec-18 15:30N 29°42' W 095°03'0 0.0
2017-Dec-18 15:00N 29°42' W 095°03'0 0.0
2017-Dec-18 14:30N 29°42' W 095°03'0 0.0
2017-Dec-18 14:00N 29°42' W 095°03'0 0.0
2017-Dec-18 13:30N 29°42' W 095°03'0 0.0
2017-Dec-18 13:00N 29°42' W 095°03'0 0.0
2017-Dec-18 12:30N 29°42' W 095°03'0 0.0
2017-Dec-18 12:00N 29°42' W 095°03'0 0.0
2017-Dec-18 11:30N 29°42' W 095°03'0 0.0
2017-Dec-18 11:00N 29°42' W 095°03'0 0.0
2017-Dec-18 10:30N 29°42' W 095°03'0 0.0
2017-Dec-18 10:00N 29°42' W 095°03'0 0.0
2017-Dec-18 09:30N 29°42' W 095°03'0 0.0
2017-Dec-18 08:59N 29°42' W 095°03'0 0.0
2017-Dec-18 08:30N 29°42' W 095°03'0 0.0
2017-Dec-18 08:00N 29°42' W 095°03'0 0.0
2017-Dec-18 07:30N 29°42' W 095°03'0 0.0
2017-Dec-18 07:00N 29°42' W 095°03'0 0.0
2017-Dec-18 06:30N 29°42' W 095°03'0 0.0
2017-Dec-18 06:00N 29°42' W 095°03'0 0.0
2017-Dec-18 05:30N 29°42' W 095°03'0 0.0
2017-Dec-18 05:00N 29°42' W 095°03'0 0.0
2017-Dec-18 04:30N 29°42' W 095°03'0 0.0
2017-Dec-18 04:00N 29°42' W 095°03'1 2.9
2017-Dec-18 03:29N 29°43' W 095°01'4 8.4
2017-Dec-18 02:59N 29°46' W 095°05'  
Track history (hours):
 
Tides and Currents Weather Stations Pressure Air Temp Water Temp Dewpoint Dewpoint Depression Visibility Wind Speed Wind Dir Waves Ship Positions

Bud Sonier

Owner: LeBeouf Bros. Towing, LLC, Houma, LA. More information available from US FCC via Universal Licensing System and Coast Guard Vessel Documentation Center.

Last reported at 2017-Dec-27 19:22 UTC. Time now 2018-Jan-20 13:11 UTC.
Position N 29°35' W 090°23'.
Warning: this ship's position is 23 days out of date.

Length 22 m; draft 3 m.

Type: Towing. MMSI: 367415180.

Date/timePositionNaut miles runAvg speedWind from/ knotsBaromVisibWave heightAir tempDewpointWater temp
2017-Dec-27 19:22N 29°35' W 090°23'2 3.7
2017-Dec-27 18:53N 29°33' W 090°24'2 5.4
2017-Dec-27 18:30N 29°33' W 090°26'3 5.6
2017-Dec-27 18:00N 29°34' W 090°29'3 5.6
2017-Dec-27 17:30N 29°34' W 090°33'3 5.3
2017-Dec-27 17:00N 29°35' W 090°35'0 0.8
2017-Dec-27 16:30N 29°35' W 090°36'0 0.6
2017-Dec-27 16:00N 29°35' W 090°36'0 0.4
2017-Dec-27 15:30N 29°34' W 090°36'0 0.2
2017-Dec-27 15:00N 29°34' W 090°36'0 0.0
2017-Dec-27 14:30N 29°34' W 090°36'0 0.0
2017-Dec-27 14:00N 29°34' W 090°36'0 0.0
2017-Dec-27 13:30N 29°34' W 090°36'0 0.0
2017-Dec-27 13:00N 29°34' W 090°36'0 0.0
2017-Dec-27 12:30N 29°34' W 090°36'0 0.0
2017-Dec-27 12:00N 29°34' W 090°36'0 0.0
2017-Dec-27 11:30N 29°34' W 090°36'1 1.3
2017-Dec-27 11:00N 29°35' W 090°36'0 0.3
2017-Dec-27 10:30N 29°35' W 090°36'0 0.2
2017-Dec-27 10:00N 29°35' W 090°36'1 2.4
2017-Dec-27 09:30N 29°35' W 090°37'2 4.9
2017-Dec-27 09:00N 29°36' W 090°40'2 4.7
2017-Dec-27 08:30N 29°37' W 090°42'2 3.9
2017-Dec-27 08:00N 29°35' W 090°43'2 3.2
2017-Dec-27 07:30N 29°34' W 090°44'2 3.5
2017-Dec-27 07:00N 29°33' W 090°46'0 0.0
2017-Dec-27 06:30N 29°33' W 090°46'0 0.0
2017-Dec-27 06:00N 29°33' W 090°46'1 1.4
2017-Dec-27 05:30N 29°32' W 090°46'2 3.2
2017-Dec-27 05:00N 29°32' W 090°48'2 3.6
2017-Dec-27 04:30N 29°32' W 090°50'2 3.3
2017-Dec-27 03:59N 29°32' W 090°52'2 3.5
2017-Dec-27 03:24N 29°33' W 090°54'2 3.6
2017-Dec-27 02:58N 29°34' W 090°56'55 3.8
2017-Dec-26 12:15N 29°51' W 091°57'1 4.4
2017-Dec-26 11:59N 29°50' W 091°58'2 4.3
2017-Dec-26 11:30N 29°50' W 092°00'2 4.6
2017-Dec-26 11:00N 29°49' W 092°03'2 4.7
2017-Dec-26 10:30N 29°48' W 092°05'2 4.7
2017-Dec-26 10:00N 29°47' W 092°08'2 4.4
2017-Dec-26 09:30N 29°47' W 092°10'2 4.1
2017-Dec-26 09:00N 29°47' W 092°12'0 0.2
2017-Dec-26 08:30N 29°47' W 092°12'1 2.5
2017-Dec-26 08:00N 29°48' W 092°14'1 2.0
2017-Dec-26 07:30N 29°48' W 092°15'0 0.0
2017-Dec-26 07:00N 29°48' W 092°15'0 0.6
2017-Dec-26 06:30N 29°48' W 092°15'2 4.2
2017-Dec-26 06:00N 29°49' W 092°17'2 4.1
2017-Dec-26 05:30N 29°50' W 092°19'2 4.7
2017-Dec-26 05:00N 29°51' W 092°22'34 4.2
2017-Dec-25 21:03N 29°56' W 093°00'1 5.0
2017-Dec-25 20:49N 29°56' W 093°02'2 5.0
2017-Dec-25 20:30N 29°56' W 093°03'2 4.7
2017-Dec-25 20:00N 29°56' W 093°06'3 5.0
2017-Dec-25 19:30N 29°56' W 093°09'2 5.0
2017-Dec-25 19:00N 29°58' W 093°11'3 5.1
2017-Dec-25 18:30N 29°60' W 093°13'2 4.5
2017-Dec-25 18:00N 30°02' W 093°14'2 4.0
2017-Dec-25 17:30N 30°03' W 093°16'2 4.3
2017-Dec-25 17:00N 30°05' W 093°17'1 2.0
2017-Dec-25 16:30N 30°06' W 093°18'0 1.0
2017-Dec-25 16:00N 30°06' W 093°18'1 2.1
2017-Dec-25 15:30N 30°06' W 093°19'2 4.3
2017-Dec-25 15:00N 30°04' W 093°21'2 3.4
2017-Dec-25 14:30N 30°04' W 093°23'3 5.2
2017-Dec-25 14:00N 30°04' W 093°26'3 5.3
2017-Dec-25 13:30N 30°04' W 093°29'3 5.4
2017-Dec-25 13:00N 30°04' W 093°32'2 4.5
2017-Dec-25 12:28N 30°04' W 093°35'3 5.6
2017-Dec-25 11:59N 30°04' W 093°38'  
2017-Dec-23 03:56N 29°30' W 094°52'4 8.4
2017-Dec-23 03:30N 29°33' W 094°55'4 8.7
2017-Dec-23 03:00N 29°37' W 094°57'3 6.2
2017-Dec-23 02:30N 29°36' W 095°01'0 0.0
2017-Dec-23 02:00N 29°36' W 095°01'0 0.0
2017-Dec-23 01:30N 29°36' W 095°01'0 0.0
2017-Dec-23 01:00N 29°36' W 095°01'0 0.0
2017-Dec-23 00:30N 29°36' W 095°01'0 0.0
2017-Dec-23 00:00N 29°36' W 095°01'0 0.0
2017-Dec-22 23:30N 29°36' W 095°01'0 0.0
2017-Dec-22 23:00N 29°36' W 095°01'0 0.0
2017-Dec-22 22:30N 29°36' W 095°01'0 0.0
2017-Dec-22 22:00N 29°36' W 095°01'0 0.0
2017-Dec-22 21:30N 29°36' W 095°01'0 0.0
2017-Dec-22 21:00N 29°36' W 095°01'0 0.0
2017-Dec-22 20:30N 29°36' W 095°01'0 0.0
2017-Dec-22 20:00N 29°36' W 095°01'0 0.0
2017-Dec-22 19:30N 29°36' W 095°01'0 0.0
2017-Dec-22 19:00N 29°36' W 095°01'0 0.0
2017-Dec-22 18:30N 29°36' W 095°01'0 0.0
2017-Dec-22 18:00N 29°36' W 095°01'0 0.0
2017-Dec-22 17:30N 29°36' W 095°01'0 0.0
2017-Dec-22 17:00N 29°36' W 095°01'0 0.0
2017-Dec-22 16:30N 29°36' W 095°01'0 0.0
2017-Dec-22 16:00N 29°36' W 095°01'0 0.0
2017-Dec-22 15:30N 29°36' W 095°01'0 0.0
2017-Dec-22 15:00N 29°36' W 095°01'0 0.0
2017-Dec-22 14:30N 29°36' W 095°01'0 0.0
2017-Dec-22 14:00N 29°36' W 095°01'0 0.0
2017-Dec-22 13:30N 29°36' W 095°01'0 0.0
2017-Dec-22 12:59N 29°36' W 095°01'0 0.0
2017-Dec-22 12:30N 29°36' W 095°01'0 0.0
2017-Dec-22 12:00N 29°36' W 095°01'0 0.0
2017-Dec-22 11:30N 29°36' W 095°01'0 0.0
2017-Dec-22 11:00N 29°36' W 095°01'0 0.0
2017-Dec-22 10:30N 29°36' W 095°01'0 0.0
2017-Dec-22 10:00N 29°36' W 095°01'0 0.0
2017-Dec-22 09:30N 29°36' W 095°01'0 0.0
2017-Dec-22 09:00N 29°36' W 095°01'0 0.0
2017-Dec-22 08:30N 29°36' W 095°01'0 0.0
2017-Dec-22 08:00N 29°36' W 095°01'0 0.0
2017-Dec-22 07:30N 29°36' W 095°01'0 0.0
2017-Dec-22 07:00N 29°36' W 095°01'0 0.0
2017-Dec-22 06:30N 29°36' W 095°01'0 0.1
2017-Dec-22 06:00N 29°37' W 095°01'2 4.2
2017-Dec-22 05:30N 29°37' W 094°59'4 7.8
2017-Dec-22 05:00N 29°34' W 094°55'21 1.0
2017-Dec-21 06:35N 29°13' W 095°02'1 7.9
2017-Dec-21 06:25N 29°15' W 095°01'13 6.9
2017-Dec-21 04:31N 29°22' W 094°48'0 8.5
2017-Dec-21 04:30N 29°22' W 094°48'24 3.2
2017-Dec-20 20:57N 29°42' W 095°03'0 0.0
2017-Dec-20 20:26N 29°42' W 095°03'0 0.0
2017-Dec-20 19:51N 29°42' W 095°03'0 0.0
2017-Dec-20 19:30N 29°42' W 095°03'3 5.8
2017-Dec-20 19:00N 29°42' W 094°60'4 8.4
2017-Dec-20 18:30N 29°38' W 094°58'5 9.3
2017-Dec-20 18:00N 29°34' W 094°55'17 6.9
2017-Dec-20 15:36N 29°17' W 094°54'110.2
2017-Dec-20 15:29N 29°17' W 094°55'13 6.9
2017-Dec-20 13:36N 29°11' W 095°09'5 6.5
2017-Dec-20 12:51N 29°14' W 095°13'24 0.6
2017-Dec-18 19:55N 29°30' W 094°52'4 9.1
2017-Dec-18 19:30N 29°33' W 094°55'5 9.1
2017-Dec-18 19:00N 29°37' W 094°57'4 8.8
2017-Dec-18 18:30N 29°41' W 094°59'3 7.0
2017-Dec-18 18:00N 29°42' W 095°03'0 0.1
2017-Dec-18 17:30N 29°42' W 095°03'0 0.0
2017-Dec-18 17:00N 29°42' W 095°03'0 0.0
2017-Dec-18 16:30N 29°42' W 095°03'0 0.0
2017-Dec-18 16:00N 29°42' W 095°03'0 0.0
2017-Dec-18 15:30N 29°42' W 095°03'0 0.0
2017-Dec-18 15:00N 29°42' W 095°03'0 0.0
2017-Dec-18 14:30N 29°42' W 095°03'0 0.0
2017-Dec-18 14:00N 29°42' W 095°03'0 0.0
2017-Dec-18 13:30N 29°42' W 095°03'0 0.0
2017-Dec-18 13:00N 29°42' W 095°03'0 0.0
2017-Dec-18 12:30N 29°42' W 095°03'0 0.0
2017-Dec-18 12:00N 29°42' W 095°03'0 0.0
2017-Dec-18 11:30N 29°42' W 095°03'0 0.0
2017-Dec-18 11:00N 29°42' W 095°03'0 0.0
2017-Dec-18 10:30N 29°42' W 095°03'0 0.0
2017-Dec-18 10:00N 29°42' W 095°03'0 0.0
2017-Dec-18 09:30N 29°42' W 095°03'0 0.0
2017-Dec-18 08:59N 29°42' W 095°03'0 0.0
2017-Dec-18 08:30N 29°42' W 095°03'0 0.0
2017-Dec-18 08:00N 29°42' W 095°03'0 0.0
2017-Dec-18 07:30N 29°42' W 095°03'0 0.0
2017-Dec-18 07:00N 29°42' W 095°03'0 0.0
2017-Dec-18 06:30N 29°42' W 095°03'0 0.0
2017-Dec-18 06:00N 29°42' W 095°03'0 0.0
2017-Dec-18 05:30N 29°42' W 095°03'0 0.0
2017-Dec-18 05:00N 29°42' W 095°03'0 0.0
2017-Dec-18 04:30N 29°42' W 095°03'0 0.0
2017-Dec-18 04:00N 29°42' W 095°03'1 2.9
2017-Dec-18 03:29N 29°43' W 095°01'4 8.4
2017-Dec-18 02:59N 29°46' W 095°05'  

Dump ship's entire track history